createdAt,value
2019-02-25T00:00:37.371Z,2
2019-02-25T00:01:37.356Z,2
2019-02-25T00:02:37.347Z,2
2019-02-25T00:03:37.336Z,1
2019-02-25T00:04:37.328Z,1
2019-02-25T00:05:37.321Z,1
2019-02-25T00:06:37.308Z,2
2019-02-25T00:07:37.299Z,1
2019-02-25T00:08:37.283Z,1
2019-02-25T00:09:37.273Z,1
2019-02-25T00:10:37.262Z,1
2019-02-25T00:11:37.249Z,1
2019-02-25T00:12:37.243Z,1
2019-02-25T00:13:37.228Z,1
2019-02-25T00:14:37.217Z,1
2019-02-25T00:15:37.209Z,1
2019-02-25T00:16:37.193Z,1
2019-02-25T00:17:37.185Z,1
2019-02-25T00:18:37.175Z,1
2019-02-25T00:19:37.163Z,1
2019-02-25T00:20:37.154Z,1
2019-02-25T00:21:37.143Z,1
2019-02-25T00:22:37.130Z,1
2019-02-25T00:23:37.118Z,1
2019-02-25T00:24:37.110Z,1
2019-02-25T00:25:37.097Z,1
2019-02-25T00:26:37.083Z,1
2019-02-25T00:27:37.071Z,1
2019-02-25T00:28:37.064Z,1
2019-02-25T00:29:37.052Z,1
2019-02-25T00:30:37.050Z,1
2019-02-25T00:31:37.042Z,1
2019-02-25T00:32:37.028Z,1
2019-02-25T00:33:37.009Z,1
2019-02-25T00:34:36.998Z,1
2019-02-25T00:35:36.987Z,1
2019-02-25T00:36:36.976Z,1
2019-02-25T00:37:36.968Z,1
2019-02-25T00:38:36.953Z,1
2019-02-25T00:39:36.946Z,1
2019-02-25T00:40:36.936Z,1
2019-02-25T00:41:36.924Z,1
2019-02-25T00:43:36.900Z,1
2019-02-25T00:44:36.890Z,1
2019-02-25T00:46:36.871Z,1
2019-02-25T00:47:36.856Z,1
2019-02-25T00:48:36.847Z,1
2019-02-25T00:49:36.936Z,1
2019-02-25T00:50:36.821Z,1
2019-02-25T00:51:36.814Z,1
2019-02-25T00:52:36.800Z,1
2019-02-25T00:53:36.791Z,1
2019-02-25T00:57:36.747Z,1
2019-02-25T01:01:36.706Z,1
2019-02-25T01:06:36.646Z,1
2019-02-25T01:14:36.560Z,1
2019-02-25T01:15:36.551Z,1
2019-02-25T01:17:36.530Z,1
2019-02-25T01:18:36.516Z,1
2019-02-25T01:19:36.505Z,1
2019-02-25T01:20:36.496Z,1
2019-02-25T01:21:36.486Z,1
2019-02-25T01:22:36.475Z,1
2019-02-25T01:23:36.466Z,1
2019-02-25T01:24:36.449Z,1
2019-02-25T01:25:36.438Z,1
2019-02-25T01:26:36.429Z,1
2019-02-25T01:27:36.419Z,1
2019-02-25T01:28:36.412Z,1
2019-02-25T01:29:36.396Z,1
2019-02-25T01:30:36.395Z,1
2019-02-25T01:31:36.377Z,1
2019-02-25T01:32:36.366Z,1
2019-02-25T01:33:36.351Z,1
2019-02-25T01:34:36.343Z,2
2019-02-25T01:35:36.431Z,2
2019-02-25T01:36:36.320Z,2
2019-02-25T01:37:36.310Z,2
2019-02-25T01:38:36.298Z,2
2019-02-25T01:39:36.289Z,20.
2019-02-25T01:40:36.280Z,12.
2019-02-25T01:41:36.269Z,17.
2019-02-25T01:42:36.254Z,16.
2019-02-25T01:43:36.245Z,16.
2019-02-25T01:44:36.233Z,19.
2019-02-25T01:45:36.230Z,23.
2019-02-25T01:46:36.212Z,22.
2019-02-25T01:47:37.313Z,23.
2019-02-25T01:48:36.187Z,23.
2019-02-25T01:49:36.179Z,14.
2019-02-25T01:50:36.269Z,17.
2019-02-25T01:51:36.156Z,19.
2019-02-25T01:52:36.142Z,17.
2019-02-25T01:53:36.134Z,19.
2019-02-25T01:54:36.123Z,19.
2019-02-25T01:55:36.112Z,21.
2019-02-25T01:56:36.104Z,20.
2019-02-25T01:57:36.094Z,22.
2019-02-25T01:58:36.079Z,19.
2019-02-25T01:59:36.073Z,20.
2019-02-25T02:00:36.059Z,21.39
2019-02-25T02:01:36.046Z,21.10
2019-02-25T02:02:36.034Z,19.10
2019-02-25T02:03:36.026Z,17.89
2019-02-25T02:04:36.013Z,19.10
2019-02-25T02:05:36.004Z,20.79
2019-02-25T02:06:35.996Z,21.70
2019-02-25T02:07:35.984Z,21.10
2019-02-25T02:08:35.971Z,22.00
2019-02-25T02:09:35.960Z,21.79
2019-02-25T02:10:35.947Z,22.70
2019-02-25T02:11:35.938Z,25.60
2019-02-25T02:12:35.930Z,24.50
2019-02-25T02:13:35.915Z,19.00
2019-02-25T02:14:35.904Z,21.39
2019-02-25T02:15:35.896Z,23.00
2019-02-25T02:16:35.883Z,23.10
2019-02-25T02:17:35.876Z,26.60
2019-02-25T02:18:35.857Z,32.09
2019-02-25T02:19:35.852Z,29.79
2019-02-25T02:20:35.838Z,31.79
2019-02-25T02:21:35.832Z,35.40
2019-02-25T02:22:35.815Z,31.89
2019-02-25T02:23:35.804Z,25.60
2019-02-25T02:24:35.794Z,30.39
2019-02-25T02:25:35.783Z,31.79
2019-02-25T02:26:35.775Z,30.29
2019-02-25T02:27:35.759Z,30.70
2019-02-25T02:28:35.753Z,30.39
2019-02-25T02:29:35.741Z,26.79
2019-02-25T02:30:35.730Z,25.70
2019-02-25T02:31:35.720Z,24.20
2019-02-25T02:32:35.715Z,23.20
2019-02-25T02:33:35.695Z,24.50
2019-02-25T02:34:35.687Z,21.60
2019-02-25T02:35:35.675Z,19.79
2019-02-25T02:36:35.663Z,22.70
2019-02-25T02:37:35.654Z,21.10
2019-02-25T02:38:35.660Z,22.10
2019-02-25T02:39:35.645Z,21.50
2019-02-25T02:40:35.716Z,21.79
2019-02-25T02:41:35.613Z,20.70
2019-02-25T02:42:35.600Z,21.70
2019-02-25T02:43:35.592Z,23.79
2019-02-25T02:44:35.578Z,26.60
2019-02-25T02:45:35.579Z,27.20
2019-02-25T02:46:35.560Z,24.89
2019-02-25T02:47:35.552Z,26.00
2019-02-25T02:48:35.538Z,24.60
2019-02-25T02:49:35.526Z,27.20
2019-02-25T02:50:35.523Z,28.50
2019-02-25T02:51:35.861Z,28.50
2019-02-25T02:52:35.494Z,28.89
2019-02-25T02:53:35.490Z,26.29
2019-02-25T02:54:35.475Z,28.79
2019-02-25T02:55:35.467Z,28.20
2019-02-25T02:56:35.449Z,26.79
2019-02-25T02:57:35.540Z,29.29
2019-02-25T02:58:35.430Z,28.60
2019-02-25T02:59:35.521Z,31.29
2019-02-25T03:00:35.406Z,29.89
2019-02-25T03:01:35.396Z,29.60
2019-02-25T03:02:35.385Z,29.20
2019-02-25T03:03:35.375Z,31.00
2019-02-25T03:04:35.360Z,33.40
2019-02-25T03:05:35.354Z,29.89
2019-02-25T03:06:35.341Z,33.20
2019-02-25T03:07:35.330Z,34.40
2019-02-25T03:08:35.320Z,31.39
2019-02-25T03:09:35.322Z,24.39
2019-02-25T03:10:35.300Z,27.50
2019-02-25T03:11:35.288Z,25.79
2019-02-25T03:12:35.275Z,25.39
2019-02-25T03:13:35.264Z,28.20
2019-02-25T03:14:35.256Z,27.79
2019-02-25T03:15:35.245Z,26.39
2019-02-25T03:16:35.231Z,25.39
2019-02-25T03:17:35.221Z,22.20
2019-02-25T03:18:35.213Z,23.00
2019-02-25T03:19:35.199Z,23.20
2019-02-25T03:20:35.188Z,20.60
2019-02-25T03:21:35.177Z,22.89
2019-02-25T03:22:35.166Z,23.00
2019-02-25T03:23:35.177Z,22.89
2019-02-25T03:25:03.027Z,17.89
2019-02-25T03:26:02.915Z,18.79
2019-02-25T03:27:02.908Z,24.79
2019-02-25T03:28:02.896Z,25.29
2019-02-25T03:29:02.886Z,20.39
2019-02-25T03:30:02.872Z,26.60
2019-02-25T03:31:02.864Z,23.79
2019-02-25T03:32:02.902Z,23.89
2019-02-25T03:33:02.843Z,25.00
2019-02-25T03:34:02.832Z,29.89
2019-02-25T03:35:02.822Z,32.40
2019-02-25T03:36:02.804Z,32.29
2019-02-25T03:37:02.795Z,31.79
2019-02-25T03:38:02.788Z,30.29
2019-02-25T03:39:02.777Z,28.29
2019-02-25T03:40:02.778Z,29.70
2019-02-25T03:41:02.752Z,32.79
2019-02-25T03:42:02.739Z,29.79
2019-02-25T03:43:02.728Z,27.39
2019-02-25T03:44:02.717Z,27.10
2019-02-25T03:45:02.711Z,26.00
2019-02-25T03:46:02.694Z,28.50
2019-02-25T03:47:02.687Z,27.79
2019-02-25T03:48:02.678Z,28.20
2019-02-25T03:49:02.663Z,28.60
2019-02-25T03:50:02.657Z,29.29
2019-02-25T03:51:02.655Z,30.50
2019-02-25T03:52:03.193Z,31.20
2019-02-25T03:53:02.619Z,30.29
2019-02-25T03:54:02.610Z,31.10
2019-02-25T03:55:02.604Z,30.79
2019-02-25T03:56:02.588Z,31.79
2019-02-25T03:57:02.578Z,31.20
2019-02-25T03:58:02.568Z,29.00
2019-02-25T03:59:02.557Z,29.79
2019-02-25T04:00:02.548Z,30.39
2019-02-25T04:01:02.537Z,30.10
2019-02-25T04:02:02.527Z,31.00
2019-02-25T04:03:02.521Z,31.60
2019-02-25T04:04:02.503Z,29.89
2019-02-25T04:05:02.496Z,30.20
2019-02-25T04:06:02.482Z,29.79
2019-02-25T04:07:02.473Z,29.50
2019-02-25T04:08:02.462Z,28.50
2019-02-25T04:09:02.455Z,27.20
2019-02-25T04:10:02.440Z,26.79
2019-02-25T04:11:02.433Z,27.10
2019-02-25T04:12:02.421Z,28.79
2019-02-25T04:13:02.410Z,27.60
2019-02-25T04:14:02.399Z,28.00
2019-02-25T04:15:02.389Z,29.10
2019-02-25T04:16:02.377Z,27.00
2019-02-25T04:17:02.431Z,27.79
2019-02-25T04:18:02.359Z,24.89
2019-02-25T04:19:02.348Z,22.50
2019-02-25T04:20:02.336Z,22.00
2019-02-25T04:21:02.325Z,22.20
2019-02-25T04:22:02.315Z,23.89
2019-02-25T04:23:02.305Z,23.79
2019-02-25T04:24:02.295Z,26.29
2019-02-25T04:25:02.282Z,25.79
2019-02-25T04:26:02.270Z,22.60
2019-02-25T04:27:02.265Z,22.20
2019-02-25T04:28:02.250Z,22.10
2019-02-25T04:29:02.243Z,21.29
2019-02-25T04:30:02.228Z,22.00
2019-02-25T04:31:02.219Z,28.70
2019-02-25T04:32:02.206Z,28.60
2019-02-25T04:33:02.200Z,39.79
2019-02-25T04:34:02.185Z,41.40
2019-02-25T04:35:02.184Z,41.70
2019-02-25T04:36:02.164Z,42.70
2019-02-25T04:37:02.153Z,42.29
2019-02-25T04:38:03.059Z,40.59
2019-02-25T04:39:02.135Z,36.00
2019-02-25T04:40:02.125Z,35.79
2019-02-25T04:41:02.118Z,32.20
2019-02-25T04:42:02.105Z,30.89
2019-02-25T04:43:02.091Z,31.00
2019-02-25T04:44:02.079Z,31.79
2019-02-25T04:45:02.068Z,30.50
2019-02-25T04:46:02.059Z,31.00
2019-02-25T04:47:02.050Z,28.60
2019-02-25T04:48:02.040Z,28.89
2019-02-25T04:49:02.033Z,26.29
2019-02-25T04:50:02.014Z,26.29
2019-02-25T04:51:02.007Z,26.29
2019-02-25T04:52:01.995Z,25.70
2019-02-25T04:53:02.091Z,25.50
2019-02-25T04:54:01.975Z,23.89
2019-02-25T04:55:01.963Z,24.70
2019-02-25T04:56:01.954Z,24.39
2019-02-25T04:57:01.940Z,22.89
2019-02-25T04:58:01.934Z,22.50
2019-02-25T04:59:01.921Z,21.79
2019-02-25T05:00:01.921Z,24.50
2019-02-25T05:01:01.905Z,23.39
2019-02-25T05:02:02.426Z,24.89
2019-02-25T05:03:01.878Z,25.79
2019-02-25T05:04:01.872Z,26.29
2019-02-25T05:05:01.859Z,27.10
2019-02-25T05:06:01.863Z,26.20
2019-02-25T05:07:01.836Z,25.20
2019-02-25T05:08:01.823Z,27.20
2019-02-25T05:09:01.812Z,32.70
2019-02-25T05:10:01.802Z,32.20
2019-02-25T05:11:01.791Z,33.00
2019-02-25T05:12:01.786Z,32.59
2019-02-25T05:13:01.771Z,33.29
2019-02-25T05:14:01.755Z,33.90
2019-02-25T05:15:01.745Z,39.70
2019-02-25T05:16:01.740Z,51.20
2019-02-25T05:17:01.725Z,58.40
2019-02-25T05:18:01.722Z,61.90
2019-02-25T05:19:01.713Z,63.09
2019-02-25T05:20:01.700Z,60.00
2019-02-25T05:21:01.684Z,39.50
2019-02-25T05:22:01.677Z,34.00
2019-02-25T05:23:01.665Z,22.00
2019-02-25T05:24:01.649Z,18.00
2019-02-25T05:25:01.642Z,18.20
2019-02-25T05:26:01.628Z,17.60
2019-02-25T05:27:01.619Z,18.79
2019-02-25T05:28:01.606Z,17.89
2019-02-25T05:29:01.600Z,18.10
2019-02-25T05:30:01.592Z,18.10
2019-02-25T05:31:01.577Z,19.20
2019-02-25T05:32:01.573Z,19.39
2019-02-25T05:33:01.560Z,18.29
2019-02-25T05:34:01.544Z,19.39
2019-02-25T05:35:01.535Z,20.79
2019-02-25T05:36:01.540Z,23.60
2019-02-25T05:37:01.526Z,25.29
2019-02-25T05:38:01.503Z,24.79
2019-02-25T05:39:01.495Z,24.20
2019-02-25T05:40:01.482Z,23.60
2019-02-25T05:41:01.676Z,24.60
2019-02-25T05:42:01.464Z,25.20
2019-02-25T05:43:01.465Z,26.10
2019-02-25T05:44:01.444Z,25.79
2019-02-25T05:45:01.437Z,26.20
2019-02-25T05:46:01.414Z,25.89
2019-02-25T05:47:01.402Z,25.50
2019-02-25T05:48:01.395Z,23.79
2019-02-25T05:49:01.382Z,24.20
2019-02-25T05:50:01.370Z,23.50
2019-02-25T05:51:01.361Z,21.79
2019-02-25T05:52:01.347Z,19.79
2019-02-25T05:53:01.443Z,20.29
2019-02-25T05:54:01.429Z,19.29
2019-02-25T05:55:01.317Z,19.29
2019-02-25T05:56:01.306Z,18.50
2019-02-25T05:57:01.293Z,19.50
2019-02-25T05:58:01.281Z,19.60
2019-02-25T05:59:01.279Z,20.39
2019-02-25T06:00:01.267Z,17.39
2019-02-25T06:01:01.254Z,17.70
2019-02-25T06:02:01.239Z,18.20
2019-02-25T06:03:01.236Z,17.70
2019-02-25T06:04:01.218Z,18.10
2019-02-25T06:05:01.205Z,18.00
2019-02-25T06:06:01.198Z,17.39
2019-02-25T06:07:01.186Z,17.50
2019-02-25T06:08:01.176Z,18.79
2019-02-25T06:09:01.163Z,18.79
2019-02-25T06:10:01.153Z,18.29
2019-02-25T06:11:01.143Z,18.70
2019-02-25T06:12:01.132Z,19.29
2019-02-25T06:13:01.119Z,18.50
2019-02-25T06:14:01.109Z,19.20
2019-02-25T06:15:01.101Z,18.79
2019-02-25T06:16:01.088Z,19.00
2019-02-25T06:17:01.075Z,19.10
2019-02-25T06:18:01.106Z,18.89
2019-02-25T06:19:01.054Z,18.50
2019-02-25T06:20:01.043Z,18.89
2019-02-25T06:21:01.034Z,16.79
2019-02-25T06:22:01.024Z,18.00
2019-02-25T06:23:01.013Z,16.89
2019-02-25T06:24:01.006Z,15.69
2019-02-25T06:25:00.993Z,16.50
2019-02-25T06:26:00.981Z,12.69
2019-02-25T06:27:00.973Z,11.60
2019-02-25T06:28:00.960Z,10.69
2019-02-25T06:29:00.951Z,9.80
2019-02-25T06:30:00.940Z,10.10
2019-02-25T06:31:00.928Z,9.10
2019-02-25T06:32:00.917Z,10.30
2019-02-25T06:33:00.907Z,10.19
2019-02-25T06:34:00.896Z,8.39
2019-02-25T06:35:00.885Z,9.60
2019-02-25T06:36:00.879Z,9.00
2019-02-25T06:37:00.867Z,8.69
2019-02-25T06:38:00.856Z,8.80
2019-02-25T06:39:00.845Z,8.30
2019-02-25T06:40:00.833Z,8.10
2019-02-25T06:41:00.825Z,8.30
2019-02-25T06:42:00.808Z,8.30
2019-02-25T06:43:00.801Z,7.90
2019-02-25T06:44:00.787Z,8.10
2019-02-25T06:45:00.852Z,8.80
2019-02-25T06:46:00.765Z,8.69
2019-02-25T06:47:00.754Z,8.60
2019-02-25T06:48:00.742Z,9.00
2019-02-25T06:49:00.733Z,9.69
2019-02-25T06:50:00.719Z,8.30
2019-02-25T06:51:00.716Z,6.40
2019-02-25T06:52:00.699Z,6.90
2019-02-25T06:53:00.695Z,6.90
2019-02-25T06:54:00.930Z,6.69
2019-02-25T06:55:00.668Z,6.90
2019-02-25T06:56:00.661Z,7.09
2019-02-25T06:57:00.649Z,6.50
2019-02-25T06:58:00.643Z,7.09
2019-02-25T06:59:00.624Z,7.69
2019-02-25T07:00:00.620Z,8.00
2019-02-25T07:01:00.606Z,8.00
2019-02-25T07:02:00.596Z,7.80
2019-02-25T07:03:00.583Z,6.50
2019-02-25T07:04:00.573Z,6.90
2019-02-25T07:05:00.564Z,7.00
2019-02-25T07:06:00.551Z,6.30
2019-02-25T07:07:00.539Z,5.80
2019-02-25T07:08:00.528Z,6.80
2019-02-25T07:09:00.623Z,6.69
2019-02-25T07:10:00.510Z,7.09
2019-02-25T07:11:00.505Z,6.59
2019-02-25T07:12:00.489Z,7.00
2019-02-25T07:13:00.478Z,6.59
2019-02-25T07:14:00.465Z,6.59
2019-02-25T07:15:00.455Z,7.00
2019-02-25T07:16:00.443Z,6.40
2019-02-25T07:17:00.437Z,5.69
2019-02-25T07:18:00.428Z,6.30
2019-02-25T07:19:00.418Z,6.59
2019-02-25T07:20:00.406Z,6.09
2019-02-25T07:21:00.397Z,5.90
2019-02-25T07:22:00.384Z,6.59
2019-02-25T07:23:00.371Z,6.50
2019-02-25T07:24:00.362Z,5.80
2019-02-25T07:25:00.350Z,4.59
2019-02-25T07:26:00.339Z,5.50
2019-02-25T07:27:00.330Z,5.30
2019-02-25T07:28:00.319Z,5.69
2019-02-25T07:29:00.312Z,5.80
2019-02-25T07:30:00.328Z,5.80
2019-02-25T07:31:00.286Z,5.40
2019-02-25T07:32:00.281Z,5.69
2019-02-25T07:33:00.265Z,6.19
2019-02-25T07:34:00.253Z,6.30
2019-02-25T07:35:00.357Z,6.40
2019-02-25T07:36:00.329Z,6.09
2019-02-25T07:37:00.227Z,6.09
2019-02-25T07:38:00.209Z,5.90
2019-02-25T07:39:00.197Z,6.09
2019-02-25T07:40:00.302Z,5.69
2019-02-25T07:41:00.179Z,6.09
2019-02-25T07:42:00.166Z,5.59
2019-02-25T07:43:00.162Z,6.00
2019-02-25T07:44:00.143Z,5.90
2019-02-25T07:45:00.310Z,6.59
2019-02-25T07:46:00.120Z,6.00
2019-02-25T07:47:00.109Z,6.80
2019-02-25T07:48:00.098Z,6.30
2019-02-25T07:49:00.099Z,5.80
2019-02-25T07:50:00.096Z,5.90
2019-02-25T07:51:00.072Z,6.30
2019-02-25T07:52:00.071Z,7.09
2019-02-25T07:53:00.045Z,6.80
2019-02-25T07:54:00.037Z,8.19
2019-02-25T07:55:00.270Z,8.30
2019-02-25T07:56:02.600Z,7.50
2019-02-25T07:56:59.999Z,10.30
2019-02-25T07:57:59.990Z,9.50
2019-02-25T07:58:59.980Z,14.69
2019-02-25T07:59:59.966Z,17.39
2019-02-25T08:00:59.960Z,19.39
2019-02-25T08:01:59.951Z,19.79
2019-02-25T08:02:59.934Z,18.50
2019-02-25T08:03:59.928Z,18.70
2019-02-25T08:04:59.914Z,16.00
2019-02-25T08:05:59.906Z,16.39
2019-02-25T08:06:59.892Z,16.89
2019-02-25T08:07:59.882Z,18.00
2019-02-25T08:08:59.871Z,18.00
2019-02-25T08:09:59.861Z,16.50
2019-02-25T08:10:59.845Z,17.50
2019-02-25T08:11:59.841Z,15.39
2019-02-25T08:12:59.824Z,16.79
2019-02-25T08:13:59.820Z,15.80
2019-02-25T08:14:59.806Z,16.20
2019-02-25T08:15:59.793Z,15.50
2019-02-25T08:16:59.782Z,15.00
2019-02-25T08:17:59.777Z,13.89
2019-02-25T08:18:59.758Z,14.80
2019-02-25T08:19:59.752Z,14.60
2019-02-25T08:20:59.739Z,14.30
2019-02-25T08:21:59.729Z,15.19
2019-02-25T08:22:59.715Z,14.69
2019-02-25T08:23:59.706Z,14.89
2019-02-25T08:24:59.695Z,13.89
2019-02-25T08:25:59.687Z,13.69
2019-02-25T08:26:59.674Z,13.60
2019-02-25T08:27:59.662Z,13.19
2019-02-25T08:28:59.653Z,12.80
2019-02-25T08:29:59.641Z,14.80
2019-02-25T08:30:59.630Z,13.39
2019-02-25T08:31:59.618Z,12.80
2019-02-25T08:32:59.608Z,12.80
2019-02-25T08:33:59.603Z,11.89
2019-02-25T08:34:59.587Z,12.39
2019-02-25T08:35:59.573Z,11.39
2019-02-25T08:37:02.413Z,11.50
2019-02-25T08:37:59.553Z,11.39
2019-02-25T08:38:59.543Z,12.50
2019-02-25T08:39:59.534Z,12.69
2019-02-25T08:40:59.523Z,13.50
2019-02-25T08:41:59.511Z,13.10
2019-02-25T08:42:59.497Z,13.10
2019-02-25T08:43:59.490Z,12.69
2019-02-25T08:44:59.477Z,11.89
2019-02-25T08:45:59.465Z,11.89
2019-02-25T08:46:59.455Z,12.69
2019-02-25T08:47:59.445Z,12.50
2019-02-25T08:48:59.435Z,13.60
2019-02-25T08:49:59.431Z,12.89
2019-02-25T08:50:59.415Z,12.69
2019-02-25T08:51:59.448Z,12.30
2019-02-25T08:52:59.389Z,12.30
2019-02-25T08:53:59.380Z,13.10
2019-02-25T08:54:59.471Z,13.30
2019-02-25T08:55:59.456Z,12.50
2019-02-25T08:56:59.347Z,11.69
2019-02-25T08:57:59.434Z,11.10
2019-02-25T08:58:59.326Z,11.89
2019-02-25T08:59:59.417Z,11.60
2019-02-25T09:00:59.308Z,10.60
2019-02-25T09:01:59.295Z,11.30
2019-02-25T09:02:59.281Z,11.50
2019-02-25T09:03:59.278Z,11.30
2019-02-25T09:04:59.258Z,11.69
2019-02-25T09:05:59.248Z,11.39
2019-02-25T09:06:59.238Z,12.00
2019-02-25T09:07:59.238Z,11.89
2019-02-25T09:08:59.215Z,11.39
2019-02-25T09:09:59.205Z,10.00
2019-02-25T09:10:59.198Z,11.10
2019-02-25T09:11:59.184Z,11.10
2019-02-25T09:12:59.173Z,10.80
2019-02-25T09:13:59.160Z,10.50
2019-02-25T09:14:59.149Z,9.80
2019-02-25T09:15:59.150Z,9.80
2019-02-25T09:16:59.131Z,9.39
2019-02-25T09:17:59.120Z,9.69
2019-02-25T09:18:59.107Z,9.30
2019-02-25T09:19:59.098Z,9.50
2019-02-25T09:20:59.098Z,10.60
2019-02-25T09:21:59.080Z,9.10
2019-02-25T09:22:59.066Z,9.80
2019-02-25T09:23:59.057Z,10.10
2019-02-25T09:24:59.043Z,8.69
2019-02-25T09:25:59.035Z,9.60
2019-02-25T09:26:59.024Z,9.60
2019-02-25T09:27:59.010Z,10.00
2019-02-25T09:28:59.003Z,9.80
2019-02-25T09:29:58.993Z,8.60
2019-02-25T09:30:58.977Z,9.50
2019-02-25T09:31:58.973Z,8.80
2019-02-25T09:32:58.960Z,8.60
2019-02-25T09:33:58.952Z,8.89
2019-02-25T09:34:58.941Z,8.69
2019-02-25T09:35:58.928Z,9.00
2019-02-25T09:36:58.917Z,8.19
2019-02-25T09:37:58.908Z,8.50
2019-02-25T09:38:58.898Z,8.39
2019-02-25T09:39:58.888Z,8.10
2019-02-25T09:40:58.872Z,7.90
2019-02-25T09:41:58.863Z,8.00
2019-02-25T09:42:58.850Z,7.50
2019-02-25T09:43:58.840Z,7.40
2019-02-25T09:44:58.832Z,6.90
2019-02-25T09:45:58.823Z,6.80
2019-02-25T09:46:58.809Z,6.90
2019-02-25T09:47:58.796Z,6.50
2019-02-25T09:48:58.784Z,6.69
2019-02-25T09:49:58.776Z,6.80
2019-02-25T09:50:58.770Z,6.59
2019-02-25T09:51:58.751Z,7.30
2019-02-25T09:52:58.742Z,8.10
2019-02-25T09:53:58.737Z,7.90
2019-02-25T09:54:58.726Z,8.30
2019-02-25T09:55:59.011Z,8.69
2019-02-25T09:56:58.703Z,8.89
2019-02-25T09:57:58.690Z,9.39
2019-02-25T09:58:58.682Z,9.69
2019-02-25T09:59:58.668Z,10.19
2019-02-25T10:00:58.658Z,10.19
2019-02-25T10:01:58.650Z,9.50
2019-02-25T10:02:58.637Z,8.00
2019-02-25T10:03:58.628Z,7.30
2019-02-25T10:04:58.613Z,7.09
2019-02-25T10:05:58.610Z,6.50
2019-02-25T10:07:02.312Z,5.80
2019-02-25T10:07:58.583Z,6.19
2019-02-25T10:08:58.573Z,5.50
2019-02-25T10:09:58.563Z,5.69
2019-02-25T10:10:58.559Z,5.50
2019-02-25T10:11:58.544Z,5.69
2019-02-25T10:12:58.530Z,5.59
2019-02-25T10:13:58.522Z,6.30
2019-02-25T10:14:58.511Z,7.00
2019-02-25T10:15:58.499Z,7.19
2019-02-25T10:16:58.493Z,8.00
2019-02-25T10:17:58.481Z,8.39
2019-02-25T10:18:58.472Z,8.19
2019-02-25T10:19:58.456Z,9.00
2019-02-25T10:20:58.449Z,9.10
2019-02-25T10:21:58.438Z,8.89
2019-02-25T10:22:58.427Z,8.69
2019-02-25T10:23:58.415Z,7.90
2019-02-25T10:24:58.513Z,8.80
2019-02-25T10:25:58.398Z,9.10
2019-02-25T10:26:58.386Z,9.19
2019-02-25T10:27:58.373Z,9.60
2019-02-25T10:28:58.368Z,9.19
2019-02-25T10:29:58.356Z,9.00
2019-02-25T10:30:58.352Z,8.50
2019-02-25T10:32:00.021Z,8.00
2019-02-25T10:32:58.324Z,8.30
2019-02-25T10:33:58.312Z,8.69
2019-02-25T10:34:58.303Z,7.90
2019-02-25T10:35:58.292Z,8.30
2019-02-25T10:36:58.278Z,7.80
2019-02-25T10:37:58.274Z,7.00
2019-02-25T10:38:58.262Z,6.59
2019-02-25T10:39:58.247Z,7.50
2019-02-25T10:40:59.394Z,7.50
2019-02-25T10:41:59.581Z,7.40
2019-02-25T10:42:58.215Z,7.50
2019-02-25T10:44:00.133Z,8.19
2019-02-25T10:44:58.201Z,7.90
2019-02-25T10:45:58.186Z,7.59
2019-02-25T10:46:58.175Z,7.69
2019-02-25T10:47:58.908Z,7.69
2019-02-25T10:48:59.187Z,7.50
2019-02-25T10:49:58.710Z,7.50
2019-02-25T10:50:58.130Z,7.50
2019-02-25T10:51:58.123Z,7.69
2019-02-25T10:53:03.446Z,7.30
2019-02-25T10:53:58.104Z,7.90
2019-02-25T10:54:58.302Z,7.40
2019-02-25T10:55:58.080Z,7.69
2019-02-25T10:56:58.173Z,7.59
2019-02-25T10:57:59.759Z,8.19
2019-02-25T10:58:59.763Z,8.30
2019-02-25T10:59:58.038Z,8.80
2019-02-25T11:00:58.031Z,7.69
2019-02-25T11:01:58.021Z,7.90
2019-02-25T11:02:58.319Z,7.90
2019-02-25T11:03:57.998Z,6.59
2019-02-25T11:04:57.992Z,8.00
2019-02-25T11:05:58.579Z,7.30
2019-02-25T11:06:58.908Z,7.90
2019-02-25T11:07:57.962Z,7.59
2019-02-25T11:08:57.945Z,7.59
2019-02-25T11:09:57.936Z,7.80
2019-02-25T11:10:57.924Z,8.00
2019-02-25T11:11:59.973Z,7.90
2019-02-25T11:12:59.744Z,8.19
2019-02-25T11:13:58.851Z,7.80
2019-02-25T11:14:57.901Z,7.90
2019-02-25T11:15:57.887Z,7.69
2019-02-25T11:16:57.892Z,7.90
2019-02-25T11:17:57.856Z,7.90
2019-02-25T11:18:58.673Z,7.09
2019-02-25T11:19:58.690Z,8.19
2019-02-25T11:20:58.992Z,7.69
2019-02-25T11:21:57.829Z,6.90
2019-02-25T11:22:57.807Z,7.30
2019-02-25T11:23:59.085Z,8.19
2019-02-25T11:24:57.892Z,7.19
2019-02-25T11:25:58.299Z,7.69
2019-02-25T11:26:59.056Z,7.80
2019-02-25T11:27:57.763Z,7.59
2019-02-25T11:28:57.743Z,7.40
2019-02-25T11:29:57.735Z,8.30
2019-02-25T11:30:57.728Z,7.59
2019-02-25T11:31:57.717Z,7.00
2019-02-25T11:32:59.593Z,6.90
2019-02-25T11:33:58.600Z,7.09
2019-02-25T11:34:57.684Z,7.59
2019-02-25T11:35:57.664Z,7.80
2019-02-25T11:37:24.498Z,7.40
2019-02-25T11:38:23.758Z,7.80
2019-02-25T11:39:22.121Z,8.00
2019-02-25T11:40:22.121Z,7.50
2019-02-25T11:41:22.088Z,7.59
2019-02-25T11:42:22.075Z,7.90
2019-02-25T11:43:22.069Z,8.00
2019-02-25T11:44:23.431Z,8.50
2019-02-25T11:45:22.047Z,8.80
2019-02-25T11:46:22.032Z,8.60
2019-02-25T11:47:22.023Z,9.10
2019-02-25T11:48:22.706Z,8.89
2019-02-25T11:49:22.000Z,9.19
2019-02-25T11:50:21.993Z,9.50
2019-02-25T11:51:21.978Z,9.50
2019-02-25T11:52:21.969Z,9.60
2019-02-25T11:53:21.960Z,9.80
2019-02-25T11:54:21.952Z,9.89
2019-02-25T11:55:22.069Z,8.00
2019-02-25T11:56:21.929Z,8.10
2019-02-25T11:57:22.217Z,8.60
2019-02-25T11:58:21.905Z,9.10
2019-02-25T11:59:21.897Z,8.50
2019-02-25T12:00:21.887Z,7.90
2019-02-25T12:01:21.877Z,8.80
2019-02-25T12:02:25.593Z,8.60
2019-02-25T12:03:21.853Z,7.90
2019-02-25T12:04:21.842Z,8.60
2019-02-25T12:05:21.830Z,8.19
2019-02-25T12:06:21.819Z,8.60
2019-02-25T12:07:21.808Z,8.60
2019-02-25T12:08:21.800Z,8.30
2019-02-25T12:09:21.788Z,8.10
2019-02-25T12:10:21.778Z,8.69
2019-02-25T12:11:21.767Z,9.00
2019-02-25T12:12:21.758Z,9.60
2019-02-25T12:13:21.746Z,8.00
2019-02-25T12:14:21.733Z,8.30
2019-02-25T12:15:21.726Z,7.80
2019-02-25T12:16:21.840Z,7.80
2019-02-25T12:17:21.704Z,7.09
2019-02-25T12:18:21.693Z,7.19
2019-02-25T12:19:21.682Z,6.30
2019-02-25T12:20:21.681Z,7.30
2019-02-25T12:21:21.660Z,6.59
2019-02-25T12:22:21.650Z,7.09
2019-02-25T12:23:21.639Z,6.69
2019-02-25T12:24:21.626Z,6.50
2019-02-25T12:25:21.616Z,6.19
2019-02-25T12:26:21.608Z,6.00
2019-02-25T12:27:21.596Z,6.90
2019-02-25T12:28:21.585Z,6.90
2019-02-25T12:29:21.574Z,7.80
2019-02-25T12:30:21.564Z,7.80
2019-02-25T12:31:21.552Z,6.90
2019-02-25T12:32:21.542Z,6.59
2019-02-25T12:33:21.531Z,6.80
2019-02-25T12:34:21.518Z,6.50
2019-02-25T12:35:21.510Z,6.30
2019-02-25T12:36:21.500Z,6.40
2019-02-25T12:37:21.493Z,6.30
2019-02-25T12:38:21.479Z,6.50
2019-02-25T12:39:21.465Z,6.59
2019-02-25T12:40:21.555Z,6.19
2019-02-25T12:41:21.444Z,6.50
2019-02-25T12:42:21.430Z,6.30
2019-02-25T12:43:21.420Z,6.09
2019-02-25T12:44:21.410Z,6.40
2019-02-25T12:45:21.401Z,6.40
2019-02-25T12:46:21.388Z,5.40
2019-02-25T12:47:21.376Z,6.09
2019-02-25T12:48:22.787Z,6.80
2019-02-25T12:49:21.356Z,6.59
2019-02-25T12:50:21.347Z,6.50
2019-02-25T12:51:21.336Z,6.90
2019-02-25T12:52:21.324Z,6.50
2019-02-25T12:53:21.310Z,6.00
2019-02-25T12:54:21.306Z,6.30
2019-02-25T12:55:21.289Z,6.59
2019-02-25T12:56:21.280Z,5.69
2019-02-25T12:57:21.370Z,6.19
2019-02-25T12:58:21.359Z,5.69
2019-02-25T12:59:21.244Z,6.50
2019-02-25T13:00:21.240Z,6.50
2019-02-25T13:01:21.225Z,6.40
2019-02-25T13:02:21.217Z,6.50
2019-02-25T13:03:21.205Z,6.19
2019-02-25T13:04:21.193Z,6.40
2019-02-25T13:05:21.179Z,6.40
2019-02-25T13:06:21.173Z,6.40
2019-02-25T13:07:21.163Z,6.40
2019-02-25T13:08:21.147Z,6.40
2019-02-25T13:09:21.236Z,16.50
2019-02-25T13:10:21.128Z,6.80
2019-02-25T13:11:21.147Z,6.80
2019-02-25T13:12:21.106Z,6.19
2019-02-25T13:13:21.099Z,7.09
2019-02-25T13:14:21.083Z,6.
2019-02-25T13:15:21.073Z,7.
2019-02-25T13:16:21.062Z,7.
2019-02-25T13:17:21.051Z,7.
2019-02-25T13:18:21.039Z,7.
2019-02-25T13:19:21.027Z,8.
2019-02-25T13:20:21.024Z,9.
2019-02-25T13:21:21.006Z,8.
2019-02-25T13:22:20.994Z,8.
2019-02-25T13:23:20.994Z,8.
2019-02-25T13:24:20.973Z,8.
2019-02-25T13:25:20.964Z,7.
2019-02-25T13:26:20.951Z,7.
2019-02-25T13:27:20.943Z,7.
2019-02-25T13:28:21.361Z,6.
2019-02-25T13:29:20.921Z,7.
2019-02-25T13:30:20.908Z,6.
2019-02-25T13:31:20.898Z,7.
2019-02-25T13:32:20.884Z,7.
2019-02-25T13:33:20.875Z,8.
2019-02-25T13:36:21.090Z,1
2019-02-25T13:37:20.830Z,1
2019-02-25T13:38:20.819Z,1
2019-02-25T13:39:20.814Z,1
2019-02-25T13:40:20.795Z,1